Time;durP1;ratioP1;P1;durP2;ratioP2;P2;SDS_P1;SDS_P2;PMS_P1;PMS_P2;Temp;Humidity;BMP_temperature;BMP_pressure;BME280_temperature;BME280_humidity;BME280_pressure;Samples;Min_cycle;Max_cycle;Signal;HPM_P1;HPM_P2
2022/03/28 00:02:43;;;;;;;25.57;13.47;;;5.80;99.90;;;;;;5009272;28;20246;-70
2022/03/28 00:05:27;;;;;;;23.77;13.27;;;5.70;99.90;;;;;;5012349;28;20192;-70
2022/03/28 00:08:11;;;;;;;19.53;12.63;;;5.70;99.90;;;;;;5008527;28;20191;-70
2022/03/28 00:10:56;;;;;;;23.77;13.63;;;5.70;99.90;;;;;;5010042;28;20239;-70
2022/03/28 00:13:41;;;;;;;24.20;12.50;;;5.70;99.90;;;;;;5007806;28;20202;-70
2022/03/28 00:16:26;;;;;;;25.50;13.07;;;5.70;99.90;;;;;;5008163;28;20216;-70
2022/03/28 00:19:10;;;;;;;20.53;10.93;;;5.70;99.90;;;;;;5006728;28;20267;-70
2022/03/28 00:21:56;;;;;;;20.03;10.17;;;5.70;99.90;;;;;;5017206;28;20221;-70
2022/03/28 00:24:40;;;;;;;17.43;9.10;;;5.70;99.90;;;;;;5011528;28;20219;-71
2022/03/28 00:27:25;;;;;;;14.97;8.07;;;5.70;99.90;;;;;;5012127;28;20372;-70
2022/03/28 00:30:09;;;;;;;14.10;7.67;;;5.70;99.90;;;;;;5012944;28;20282;-70
2022/03/28 00:32:54;;;;;;;20.17;6.97;;;5.70;99.90;;;;;;5013914;28;20200;-70
2022/03/28 00:35:41;;;;;;;17.23;6.03;;;5.70;99.90;;;;;;5018749;28;20202;-70
2022/03/28 00:38:25;;;;;;;10.93;6.17;;;5.60;99.90;;;;;;5008324;28;20194;-70
2022/03/28 00:41:09;;;;;;;19.43;8.50;;;5.60;99.90;;;;;;5016027;28;20537;-71
2022/03/28 00:43:59;;;;;;;14.00;6.97;;;5.60;99.90;;;;;;5015992;28;20222;-71
2022/03/28 00:46:43;;;;;;;14.93;7.30;;;5.60;99.90;;;;;;5012059;28;20200;-70
2022/03/28 00:49:28;;;;;;;14.07;6.00;;;5.60;99.90;;;;;;5015042;28;20215;-71
2022/03/28 00:52:12;;;;;;;15.55;8.25;;;5.70;99.90;;;;;;5018131;28;20416;-70
2022/03/28 00:54:57;;;;;;;19.55;9.60;;;5.60;99.90;;;;;;5011460;28;20943;-71
2022/03/28 00:57:42;;;;;;;21.20;10.13;;;5.70;99.90;;;;;;5029826;28;20507;-71
2022/03/28 01:00:27;;;;;;;17.42;9.93;;;5.70;99.90;;;;;;5010951;28;20404;-72
2022/03/28 01:03:11;;;;;;;22.02;10.27;;;5.70;99.90;;;;;;5013325;28;20400;-71
2022/03/28 01:05:56;;;;;;;13.10;8.93;;;5.80;99.90;;;;;;5014222;28;20423;-71
2022/03/28 01:08:41;;;;;;;14.27;8.90;;;5.80;99.90;;;;;;5009584;28;20424;-70
2022/03/28 01:11:26;;;;;;;15.40;8.95;;;5.80;99.90;;;;;;5017926;28;20459;-71
2022/03/28 01:14:10;;;;;;;17.37;7.80;;;5.80;99.90;;;;;;5024003;28;20393;-71
2022/03/28 01:19:58;;;;;;;12.68;7.78;;;5.80;99.90;;;;;;5010364;28;20404;-70
2022/03/28 01:22:42;;;;;;;13.87;6.97;;;5.80;99.90;;;;;;5011592;28;20388;-70
2022/03/28 01:25:29;;;;;;;12.37;5.27;;;5.90;99.90;;;;;;5011180;28;20426;-70
2022/03/28 01:28:13;;;;;;;10.60;5.37;;;5.80;99.90;;;;;;5014725;28;20238;-70
2022/03/28 01:30:58;;;;;;;10.67;5.53;;;5.70;99.90;;;;;;5025379;28;20231;-70
2022/03/28 01:34:21;;;;;;;10.53;5.50;;;5.70;99.90;;;;;;5027561;28;20703;-70
2022/03/28 01:37:05;;;;;;;9.03;5.17;;;5.80;99.90;;;;;;5021743;28;20218;-70
2022/03/28 01:39:49;;;;;;;12.80;6.23;;;5.70;99.90;;;;;;5020280;28;20185;-70
2022/03/28 01:42:34;;;;;;;10.87;5.50;;;5.70;99.90;;;;;;5014522;28;20335;-71
2022/03/28 01:45:18;;;;;;;13.60;8.38;;;5.70;99.90;;;;;;5014448;28;20402;-71
2022/03/28 01:48:04;;;;;;;13.38;8.90;;;5.70;99.90;;;;;;5017485;28;20493;-71
2022/03/28 01:50:48;;;;;;;12.85;8.50;;;5.80;99.90;;;;;;5016720;28;20480;-70
2022/03/28 01:53:32;;;;;;;10.53;6.23;;;5.80;99.90;;;;;;5006834;28;20200;-70
2022/03/28 01:56:17;;;;;;;11.30;6.13;;;5.80;99.90;;;;;;5008467;28;20679;-70
2022/03/28 01:59:03;;;;;;;11.07;6.83;;;5.80;99.90;;;;;;5010961;28;20206;-70
2022/03/28 02:01:48;;;;;;;14.85;9.45;;;5.80;99.90;;;;;;5012583;28;20787;-69
2022/03/28 02:04:32;;;;;;;16.23;9.23;;;5.80;99.90;;;;;;5006819;28;20520;-70
2022/03/28 02:07:17;;;;;;;12.27;8.82;;;5.80;99.90;;;;;;5022181;28;20398;-69
2022/03/28 02:10:02;;;;;;;16.85;9.43;;;5.80;99.90;;;;;;5006292;28;20435;-71
2022/03/28 02:12:47;;;;;;;14.45;9.50;;;5.90;99.90;;;;;;5020136;28;20402;-69
2022/03/28 02:15:32;;;;;;;13.55;9.15;;;5.90;99.90;;;;;;5001768;28;20431;-70
2022/03/28 02:18:17;;;;;;;9.77;6.03;;;5.90;99.90;;;;;;5017673;28;20226;-69
2022/03/28 02:21:01;;;;;;;10.00;5.97;;;5.80;99.90;;;;;;5026971;28;20231;-70
2022/03/28 02:23:45;;;;;;;13.43;6.60;;;5.80;99.90;;;;;;5025482;28;20207;-69
2022/03/28 02:26:29;;;;;;;11.83;6.30;;;5.90;99.90;;;;;;5009019;28;20682;-71
2022/03/28 02:29:13;;;;;;;13.83;6.20;;;5.90;99.90;;;;;;5017148;28;20180;-68
2022/03/28 02:31:57;;;;;;;13.65;8.20;;;5.90;99.90;;;;;;5008619;28;20777;-70
2022/03/28 02:34:41;;;;;;;14.18;8.02;;;5.80;99.90;;;;;;5018250;28;20484;-70
2022/03/28 02:37:25;;;;;;;10.70;7.47;;;5.80;99.90;;;;;;5010096;28;20487;-71
2022/03/28 02:40:12;;;;;;;12.57;7.80;;;5.80;99.90;;;;;;5012869;28;20406;-71
2022/03/28 02:42:57;;;;;;;11.32;7.80;;;5.80;99.90;;;;;;5020817;28;20496;-70
2022/03/28 02:45:42;;;;;;;10.77;8.00;;;5.80;99.90;;;;;;5015339;28;20404;-71
2022/03/28 02:48:27;;;;;;;14.07;8.33;;;5.80;99.90;;;;;;5013075;28;20461;-70
2022/03/28 02:51:11;;;;;;;12.18;8.63;;;5.80;99.90;;;;;;5014538;28;20458;-71
2022/03/28 02:53:55;;;;;;;14.10;9.20;;;5.80;99.90;;;;;;5008958;28;20915;-70
2022/03/28 02:56:39;;;;;;;18.08;10.65;;;5.90;99.90;;;;;;5013774;28;20422;-70
2022/03/28 02:59:24;;;;;;;15.95;10.82;;;5.90;99.90;;;;;;5016066;28;20403;-70
2022/03/28 03:02:09;;;;;;;23.30;11.45;;;5.90;99.90;;;;;;5011864;28;20451;-71
2022/03/28 03:04:53;;;;;;;18.90;11.93;;;5.90;99.90;;;;;;5007370;28;20428;-70
2022/03/28 03:07:37;;;;;;;18.50;12.25;;;5.90;99.90;;;;;;5007616;28;20407;-70
2022/03/28 03:10:22;;;;;;;19.85;13.38;;;5.90;99.90;;;;;;5010811;28;20410;-71
2022/03/28 03:13:08;;;;;;;21.00;14.07;;;5.90;99.90;;;;;;5014717;28;20486;-71
2022/03/28 03:15:52;;;;;;;19.73;13.43;;;6.00;99.90;;;;;;5012158;28;20458;-73
2022/03/28 03:18:36;;;;;;;16.13;12.30;;;6.00;99.90;;;;;;5016962;28;20433;-72
2022/03/28 03:21:21;;;;;;;18.00;12.63;;;6.00;99.90;;;;;;5023758;28;20449;-70
2022/03/28 03:24:05;;;;;;;16.73;12.15;;;5.90;99.90;;;;;;5008554;28;20987;-70
2022/03/28 03:26:49;;;;;;;16.25;12.63;;;5.80;99.90;;;;;;5006294;28;20946;-70
2022/03/28 03:29:35;;;;;;;15.60;12.65;;;5.80;99.90;;;;;;5008474;28;20482;-70
2022/03/28 03:32:19;;;;;;;19.25;13.65;;;5.80;99.90;;;;;;4998951;28;20418;-70
2022/03/28 03:35:04;;;;;;;22.88;14.30;;;5.80;99.90;;;;;;5006248;28;20475;-69
2022/03/28 03:37:50;;;;;;;21.63;14.35;;;5.80;99.90;;;;;;5006068;28;20500;-70
2022/03/28 03:40:34;;;;;;;21.83;14.88;;;5.80;99.90;;;;;;5022896;28;20410;-71
2022/03/28 03:43:18;;;;;;;21.63;15.18;;;5.70;99.90;;;;;;4994465;28;20919;-69
2022/03/28 03:46:02;;;;;;;21.15;15.73;;;5.70;99.90;;;;;;5011526;28;20454;-70
2022/03/28 03:48:46;;;;;;;20.95;15.38;;;5.70;99.90;;;;;;5015895;28;20483;-70
2022/03/28 03:51:31;;;;;;;21.80;16.27;;;5.70;99.90;;;;;;5005100;28;20890;-71
2022/03/28 03:54:15;;;;;;;21.38;16.20;;;5.70;99.90;;;;;;5012864;28;20397;-70
2022/03/28 03:56:59;;;;;;;23.20;17.30;;;5.80;99.90;;;;;;5021196;28;20420;-71
2022/03/28 03:59:43;;;;;;;27.25;17.80;;;5.80;99.90;;;;;;5010796;28;20444;-70
2022/03/28 04:02:27;;;;;;;27.27;16.67;;;5.80;99.90;;;;;;5008973;28;20435;-70
2022/03/28 04:05:12;;;;;;;23.27;17.30;;;5.80;99.90;;;;;;5012738;28;20455;-68
2022/03/28 04:07:57;;;;;;;23.77;16.95;;;5.80;99.90;;;;;;5008456;28;20404;-68
2022/03/28 04:10:42;;;;;;;21.90;16.33;;;5.80;99.90;;;;;;5008750;28;20419;-68
2022/03/28 04:13:27;;;;;;;21.23;16.20;;;5.80;99.90;;;;;;5009035;28;20447;-68
2022/03/28 04:16:11;;;;;;;24.05;17.27;;;5.70;99.90;;;;;;5008820;28;20498;-68
2022/03/28 04:18:55;;;;;;;24.60;17.73;;;5.80;99.90;;;;;;5014173;28;20398;-68
2022/03/28 04:21:39;;;;;;;26.13;18.05;;;5.80;99.90;;;;;;5004308;28;20407;-68
2022/03/28 04:24:23;;;;;;;25.05;17.77;;;5.90;99.90;;;;;;5006451;28;20970;-68
2022/03/28 04:27:07;;;;;;;24.83;16.95;;;5.90;99.90;;;;;;5012832;28;20919;-67
2022/03/28 04:29:51;;;;;;;24.15;17.83;;;5.90;99.90;;;;;;4996091;28;20404;-68
2022/03/28 04:32:36;;;;;;;26.08;18.00;;;5.90;99.90;;;;;;5005619;28;21022;-68
2022/03/28 04:35:20;;;;;;;28.10;18.38;;;5.90;99.90;;;;;;5010488;28;20782;-68
2022/03/28 04:38:09;;;;;;;28.13;18.73;;;6.00;99.90;;;;;;5004792;28;20424;-68
2022/03/28 04:40:53;;;;;;;29.20;18.75;;;5.90;99.90;;;;;;5009398;28;20451;-68
2022/03/28 04:43:38;;;;;;;29.10;19.42;;;6.00;99.90;;;;;;5009750;28;20447;-68
2022/03/28 04:46:22;;;;;;;32.85;20.35;;;5.90;99.90;;;;;;5008584;28;20412;-68
2022/03/28 04:49:06;;;;;;;30.30;19.75;;;6.00;99.90;;;;;;5019311;28;20383;-68
2022/03/28 04:51:50;;;;;;;31.92;20.75;;;6.00;99.90;;;;;;5011334;28;20447;-68
2022/03/28 04:54:36;;;;;;;37.28;21.67;;;5.90;99.90;;;;;;5021199;28;20398;-68
2022/03/28 04:57:20;;;;;;;38.27;21.80;;;5.90;99.90;;;;;;5013513;28;20479;-68
2022/03/28 05:00:07;;;;;;;38.45;22.83;;;5.90;99.90;;;;;;5009425;28;20400;-67
2022/03/28 05:02:52;;;;;;;41.20;23.35;;;5.90;99.90;;;;;;5018865;28;20408;-68
2022/03/28 05:05:36;;;;;;;40.88;23.48;;;5.90;99.90;;;;;;5004333;28;20516;-68
2022/03/28 05:08:20;;;;;;;37.30;19.83;;;5.90;99.90;;;;;;5015738;28;20443;-67
2022/03/28 05:11:04;;;;;;;36.92;18.77;;;5.80;99.90;;;;;;5009371;28;20471;-68
2022/03/28 05:13:50;;;;;;;30.50;17.38;;;5.80;99.90;;;;;;5011570;28;20879;-68
2022/03/28 05:16:34;;;;;;;29.92;17.33;;;5.80;99.90;;;;;;5008358;28;20431;-68
2022/03/28 05:19:18;;;;;;;26.50;15.43;;;5.80;99.90;;;;;;5009079;28;20502;-69
2022/03/28 05:22:02;;;;;;;21.05;13.25;;;5.80;99.90;;;;;;5022618;28;20390;-68
2022/03/28 05:24:47;;;;;;;22.10;13.57;;;5.80;99.90;;;;;;5002579;28;20779;-68
2022/03/28 05:27:31;;;;;;;23.07;13.33;;;5.80;99.90;;;;;;5019714;28;20463;-68
2022/03/28 05:30:17;;;;;;;25.35;13.68;;;5.70;99.90;;;;;;5019296;28;20903;-68
2022/03/28 05:33:02;;;;;;;24.73;12.95;;;5.70;99.90;;;;;;5019090;28;20416;-68
2022/03/28 05:35:46;;;;;;;24.63;13.45;;;5.70;99.90;;;;;;5007983;28;20397;-68
2022/03/28 05:38:32;;;;;;;25.50;13.95;;;5.80;99.90;;;;;;5009202;28;20428;-68
2022/03/28 05:41:17;;;;;;;25.55;14.25;;;5.80;99.90;;;;;;5007956;28;20908;-68
2022/03/28 05:44:01;;;;;;;27.60;14.60;;;5.80;99.90;;;;;;5007766;28;20525;-68
2022/03/28 05:46:48;;;;;;;29.75;15.40;;;5.80;99.90;;;;;;5007112;28;20399;-68
2022/03/28 05:49:32;;;;;;;32.10;16.75;;;5.80;99.90;;;;;;5013682;28;20466;-70
2022/03/28 05:52:16;;;;;;;42.53;18.08;;;5.80;99.90;;;;;;5009161;28;20451;-70
2022/03/28 05:55:01;;;;;;;36.85;18.27;;;5.90;99.90;;;;;;5021886;28;20767;-69
2022/03/28 05:57:45;;;;;;;39.70;18.80;;;5.90;99.90;;;;;;5016109;28;20419;-70
2022/03/28 06:00:29;;;;;;;43.13;20.00;;;5.80;99.90;;;;;;5015110;28;20402;-69
2022/03/28 06:03:13;;;;;;;44.30;19.67;;;5.80;99.90;;;;;;5023016;28;20404;-69
2022/03/28 06:05:57;;;;;;;46.90;21.02;;;5.80;99.90;;;;;;5010029;28;20419;-70
2022/03/28 06:08:41;;;;;;;45.30;20.07;;;5.80;99.90;;;;;;4995164;28;20490;-69
2022/03/28 06:11:25;;;;;;;45.47;20.05;;;5.80;99.90;;;;;;5010557;28;20439;-69
2022/03/28 06:14:10;;;;;;;40.70;19.17;;;5.90;99.90;;;;;;5005807;28;20976;-69
2022/03/28 06:16:54;;;;;;;43.30;18.63;;;5.90;99.90;;;;;;5010894;28;20424;-69
2022/03/28 06:19:38;;;;;;;42.30;18.52;;;5.80;99.90;;;;;;5018945;28;20407;-69
2022/03/28 06:22:22;;;;;;;41.50;18.17;;;5.80;99.90;;;;;;5001063;28;20428;-70
2022/03/28 06:25:08;;;;;;;38.38;17.50;;;5.90;99.90;;;;;;5010932;28;20935;-69
2022/03/28 06:27:53;;;;;;;39.42;17.13;;;5.90;99.90;;;;;;5018981;28;20476;-69
2022/03/28 06:30:37;;;;;;;36.58;15.63;;;5.90;99.90;;;;;;5021116;28;20482;-68
2022/03/28 06:33:21;;;;;;;35.00;15.52;;;6.00;99.90;;;;;;5011757;28;20390;-69
2022/03/28 06:36:07;;;;;;;30.07;12.77;;;5.90;99.90;;;;;;5009411;28;20255;-69
2022/03/28 06:38:51;;;;;;;28.10;11.50;;;5.90;99.90;;;;;;5000795;28;20183;-69
2022/03/28 06:41:35;;;;;;;21.63;9.87;;;5.90;99.90;;;;;;5012967;28;20227;-69
2022/03/28 06:44:20;;;;;;;21.87;9.43;;;5.80;99.90;;;;;;5002994;28;20255;-69
2022/03/28 06:47:04;;;;;;;20.97;9.33;;;5.80;99.90;;;;;;5011606;28;20306;-70
2022/03/28 06:49:48;;;;;;;19.10;8.97;;;5.80;99.90;;;;;;5018294;28;20219;-70
2022/03/28 06:52:33;;;;;;;16.50;8.47;;;5.80;99.90;;;;;;5014995;28;20668;-69
2022/03/28 06:55:19;;;;;;;17.43;8.63;;;5.80;99.90;;;;;;5015411;28;20222;-70
2022/03/28 06:58:03;;;;;;;16.67;8.23;;;5.70;99.90;;;;;;5012500;28;20188;-69
2022/03/28 07:00:47;;;;;;;17.27;8.43;;;5.70;99.90;;;;;;5010743;28;20253;-69
2022/03/28 07:03:32;;;;;;;18.53;8.73;;;5.70;99.90;;;;;;5007308;28;20248;-70
2022/03/28 07:06:17;;;;;;;16.27;8.70;;;5.70;99.90;;;;;;5015209;28;20183;-71
2022/03/28 07:09:04;;;;;;;21.53;10.23;;;5.70;99.90;;;;;;5014417;28;20195;-70
2022/03/28 07:11:48;;;;;;;23.10;11.03;;;5.70;99.90;;;;;;5017636;28;20207;-70
2022/03/28 07:14:33;;;;;;;20.50;10.30;;;5.70;99.90;;;;;;5020935;28;20202;-70
2022/03/28 07:17:19;;;;;;;22.10;11.23;;;5.70;99.90;;;;;;5010492;28;20202;-70
2022/03/28 07:20:03;;;;;;;24.43;11.63;;;5.70;99.90;;;;;;5018212;28;20214;-70
2022/03/28 07:22:48;;;;;;;21.40;10.80;;;5.70;99.90;;;;;;5007767;28;20195;-70
2022/03/28 07:25:33;;;;;;;19.83;10.60;;;5.80;99.90;;;;;;5009553;28;20215;-69
2022/03/28 07:28:17;;;;;;;21.93;11.87;;;5.80;99.90;;;;;;5017109;28;20215;-70
2022/03/28 07:31:01;;;;;;;21.30;11.20;;;5.80;99.90;;;;;;5015477;28;20221;-70
2022/03/28 07:33:46;;;;;;;21.30;11.00;;;5.80;99.90;;;;;;5016028;28;20234;-71
2022/03/28 07:36:31;;;;;;;25.93;12.00;;;5.80;99.90;;;;;;5013126;28;20202;-71
2022/03/28 07:39:15;;;;;;;21.33;10.93;;;5.80;99.90;;;;;;5015149;28;20188;-71
2022/03/28 07:41:59;;;;;;;21.43;10.77;;;5.80;99.90;;;;;;5014420;28;20187;-71
2022/03/28 07:44:43;;;;;;;28.30;13.07;;;5.80;99.90;;;;;;5011798;28;20694;-71
2022/03/28 07:47:27;;;;;;;27.53;13.60;;;5.90;99.90;;;;;;5018677;28;20256;-71
2022/03/28 07:50:12;;;;;;;24.03;12.13;;;5.80;99.90;;;;;;5024805;28;20277;-71
2022/03/28 07:52:56;;;;;;;24.17;12.87;;;5.90;99.90;;;;;;5010621;28;20238;-71
2022/03/28 07:55:42;;;;;;;28.90;14.37;;;5.90;99.90;;;;;;5021147;28;20190;-71
2022/03/28 07:58:26;;;;;;;27.27;12.83;;;5.90;99.90;;;;;;5019521;28;20187;-71
2022/03/28 08:01:11;;;;;;;27.20;14.60;;;5.90;99.90;;;;;;5012587;28;20288;-71
2022/03/28 08:03:55;;;;;;;27.00;14.17;;;5.90;99.90;;;;;;5019475;28;20191;-70
2022/03/28 08:06:39;;;;;;;25.10;12.80;;;5.90;99.90;;;;;;5014216;28;20246;-71
2022/03/28 08:09:23;;;;;;;24.80;13.07;;;5.90;99.90;;;;;;5013091;28;20243;-71
2022/03/28 08:12:09;;;;;;;22.87;12.30;;;5.90;99.90;;;;;;5027557;28;20213;-71
2022/03/28 08:14:53;;;;;;;27.27;14.00;;;5.90;99.90;;;;;;5031976;28;20226;-70
2022/03/28 08:17:38;;;;;;;22.70;13.00;;;6.00;99.90;;;;;;5012657;28;20196;-70
2022/03/28 08:20:22;;;;;;;22.83;12.80;;;5.90;99.90;;;;;;5012150;28;20286;-70
2022/03/28 08:23:07;;;;;;;20.73;11.67;;;6.00;99.90;;;;;;5011345;28;20247;-70
2022/03/28 08:25:51;;;;;;;22.47;12.33;;;6.00;99.90;;;;;;5019470;28;20231;-70
2022/03/28 08:28:35;;;;;;;23.93;13.27;;;6.00;99.90;;;;;;5012295;28;20231;-70
2022/03/28 08:31:20;;;;;;;24.53;12.13;;;6.00;99.90;;;;;;5011997;28;20219;-70
2022/03/28 08:34:04;;;;;;;25.20;13.37;;;6.00;99.90;;;;;;5025532;28;20187;-70
2022/03/28 08:36:48;;;;;;;26.40;13.90;;;6.00;99.90;;;;;;5022900;28;20722;-70
2022/03/28 08:39:36;;;;;;;23.67;13.93;;;6.10;99.90;;;;;;5011593;28;20250;-70
2022/03/28 08:42:22;;;;;;;25.37;14.83;;;6.10;99.90;;;;;;5012691;28;20184;-70
2022/03/28 08:45:08;;;;;;;26.20;14.80;;;6.10;99.90;;;;;;5012046;28;20235;-70
2022/03/28 08:47:55;;;;;;;23.90;13.67;;;6.10;99.90;;;;;;5018380;28;20717;-69
2022/03/28 08:50:42;;;;;;;26.00;13.70;;;6.20;99.90;;;;;;5012821;28;20227;-70
2022/03/28 08:53:27;;;;;;;25.83;14.40;;;6.20;99.90;;;;;;5022168;28;20180;-70
2022/03/28 08:56:11;;;;;;;25.07;12.90;;;6.20;99.90;;;;;;5016598;28;20667;-69
2022/03/28 08:58:55;;;;;;;22.53;12.87;;;6.20;99.90;;;;;;5012017;28;20270;-70
2022/03/28 09:01:43;;;;;;;25.37;14.43;;;6.30;99.90;;;;;;5011692;28;20622;-71
2022/03/28 09:04:28;;;;;;;24.73;14.60;;;6.30;99.90;;;;;;5032074;28;20184;-69
2022/03/28 09:07:24;;;;;;;28.07;13.53;;;6.30;99.90;;;;;;5021035;28;20699;-70
2022/03/28 09:10:15;;;;;;;24.30;14.23;;;6.30;99.90;;;;;;5016069;28;20220;-70
2022/03/28 09:13:09;;;;;;;31.63;13.27;;;6.40;99.90;;;;;;5012326;28;20182;-70
2022/03/28 09:16:00;;;;;;;26.17;13.17;;;6.40;99.90;;;;;;5017618;28;20239;-70
2022/03/28 09:18:45;;;;;;;21.63;12.40;;;6.50;99.90;;;;;;5020965;28;20181;-70
2022/03/28 09:21:29;;;;;;;19.47;12.10;;;6.50;99.90;;;;;;5018518;28;20284;-70
2022/03/28 09:24:13;;;;;;;20.47;12.17;;;6.60;99.90;;;;;;5010763;28;20207;-70
2022/03/28 09:27:22;;;;;;;21.80;13.53;;;6.60;99.90;;;;;;5006785;28;20263;-70
2022/03/28 09:30:10;;;;;;;24.67;14.33;;;6.60;99.90;;;;;;5009335;28;20259;-70
2022/03/28 09:32:55;;;;;;;22.07;13.93;;;6.60;99.90;;;;;;5008297;28;20196;-70
2022/03/28 09:35:46;;;;;;;27.30;15.50;;;6.60;99.90;;;;;;5008884;28;20180;-70
2022/03/28 09:38:30;;;;;;;24.50;14.63;;;6.60;99.90;;;;;;5021112;28;20231;-70
2022/03/28 09:41:14;;;;;;;27.03;14.73;;;6.60;99.90;;;;;;5010490;28;20215;-70
2022/03/28 09:43:58;;;;;;;24.03;13.73;;;6.70;99.90;;;;;;5007709;28;20231;-70
2022/03/28 09:46:42;;;;;;;28.00;15.73;;;6.70;99.90;;;;;;5005435;28;20212;-70
2022/03/28 09:49:26;;;;;;;24.77;15.10;;;6.80;99.90;;;;;;5007675;28;20305;-70
2022/03/28 09:52:17;;;;;;;25.83;15.53;;;6.80;99.90;;;;;;5009323;28;20326;-69
2022/03/28 09:55:05;;;;;;;22.43;14.80;;;6.80;99.90;;;;;;5007895;28;20594;-70
2022/03/28 09:57:49;;;;;;;28.30;15.80;;;6.80;99.90;;;;;;5004304;28;20872;-70
2022/03/28 10:00:34;;;;;;;27.40;15.37;;;6.90;99.90;;;;;;5005718;28;20272;-69
2022/03/28 10:03:18;;;;;;;25.00;14.73;;;6.90;99.90;;;;;;5005969;28;20191;-70
2022/03/28 10:06:05;;;;;;;24.17;14.77;;;6.90;99.90;;;;;;5010728;28;20262;-68
2022/03/28 10:08:50;;;;;;;20.97;14.07;;;6.90;99.90;;;;;;5005986;28;20270;-69
2022/03/28 10:11:36;;;;;;;25.57;14.57;;;6.90;99.90;;;;;;5022184;28;20585;-69
2022/03/28 10:14:20;;;;;;;24.87;15.00;;;6.90;99.90;;;;;;5004189;28;20208;-69
2022/03/28 10:17:06;;;;;;;25.37;14.77;;;7.00;99.90;;;;;;5007683;28;20314;-69
2022/03/28 10:19:51;;;;;;;23.67;14.00;;;7.00;99.90;;;;;;5007904;28;20227;-69
2022/03/28 10:22:39;;;;;;;22.80;13.90;;;7.00;99.90;;;;;;5007501;28;20195;-69
2022/03/28 10:25:25;;;;;;;26.63;14.70;;;7.10;99.90;;;;;;5004595;28;20211;-69
2022/03/28 10:28:09;;;;;;;23.43;14.70;;;7.10;99.90;;;;;;5003590;28;20227;-69
2022/03/28 10:31:17;;;;;;;26.23;14.93;;;7.10;99.90;;;;;;5000380;28;20296;-70
2022/03/28 10:34:02;;;;;;;23.17;14.30;;;7.20;99.90;;;;;;5003237;28;20207;-69
2022/03/28 10:36:47;;;;;;;24.80;14.40;;;7.30;99.90;;;;;;5003554;28;20223;-69
2022/03/28 10:39:37;;;;;;;24.87;14.53;;;7.30;99.90;;;;;;5006001;28;20250;-69
2022/03/28 10:42:25;;;;;;;29.03;15.03;;;7.40;99.90;;;;;;5006008;28;20250;-69
2022/03/28 10:45:09;;;;;;;24.60;14.83;;;7.40;99.90;;;;;;5006804;28;20280;-69
2022/03/28 10:47:59;;;;;;;23.37;13.50;;;7.40;99.90;;;;;;5019984;28;20338;-69
2022/03/28 10:50:48;;;;;;;27.17;14.37;;;7.40;99.90;;;;;;5003973;28;20304;-69
2022/03/28 10:53:41;;;;;;;24.43;14.70;;;7.40;99.90;;;;;;5005415;28;20232;-69
2022/03/28 10:56:40;;;;;;;25.20;14.57;;;7.40;99.90;;;;;;5002752;28;20297;-69
2022/03/28 10:59:26;;;;;;;24.03;14.37;;;7.50;99.90;;;;;;5004434;28;20335;-69
2022/03/28 11:02:28;;;;;;;26.00;14.77;;;7.50;99.90;;;;;;5007991;28;20602;-69
2022/03/28 11:05:14;;;;;;;23.77;14.20;;;7.50;99.90;;;;;;5006908;28;20294;-69
2022/03/28 11:08:03;;;;;;;29.20;14.97;;;7.60;99.90;;;;;;5023400;28;20215;-69
2022/03/28 11:11:22;;;;;;;22.20;13.83;;;7.60;99.90;;;;;;5009098;28;20239;-69
2022/03/28 11:14:12;;;;;;;22.93;14.63;;;7.60;99.90;;;;;;5009890;28;20262;-69
2022/03/28 11:16:56;;;;;;;23.53;14.43;;;7.60;99.90;;;;;;5003308;28;20208;-69
2022/03/28 11:19:54;;;;;;;25.07;14.50;;;7.60;99.90;;;;;;5005765;28;20193;-69
2022/03/28 11:22:54;;;;;;;23.37;14.27;;;7.60;99.90;;;;;;5021356;28;20188;-69
2022/03/28 11:25:52;;;;;;;24.77;15.20;;;7.70;99.90;;;;;;5008135;28;20203;-69
2022/03/28 11:28:38;;;;;;;25.53;15.00;;;7.80;99.90;;;;;;5008804;28;20279;-69
2022/03/28 11:31:22;;;;;;;33.75;20.42;;;7.90;99.90;;;;;;5009342;28;20443;-69
2022/03/28 11:34:09;;;;;;;33.25;21.90;;;8.00;99.90;;;;;;5010487;28;20435;-69
2022/03/28 11:36:57;;;;;;;28.10;16.33;;;8.00;99.90;;;;;;5008754;28;20204;-69
2022/03/28 11:39:59;;;;;;;31.27;17.80;;;8.10;99.90;;;;;;5008870;28;20240;-69
2022/03/28 11:42:49;;;;;;;26.97;17.30;;;8.20;99.90;;;;;;5006868;28;20195;-69
2022/03/28 11:45:34;;;;;;;30.77;17.23;;;8.30;99.90;;;;;;5026394;28;20190;-69
2022/03/28 11:48:19;;;;;;;30.50;17.27;;;8.40;99.90;;;;;;5006736;28;20207;-69
2022/03/28 11:51:16;;;;;;;29.30;16.97;;;8.40;99.90;;;;;;5009434;28;20736;-69
2022/03/28 11:54:09;;;;;;;30.43;17.37;;;8.50;99.90;;;;;;5005895;28;20201;-69
2022/03/28 11:59:56;;;;;;;34.50;18.60;;;8.40;99.90;;;;;;5006418;28;20715;-69
2022/03/28 12:02:56;;;;;;;34.60;18.53;;;8.40;99.90;;;;;;5007822;28;20259;-69
2022/03/28 12:05:44;;;;;;;33.50;18.13;;;8.40;99.90;;;;;;5005249;28;20196;-69
2022/03/28 12:08:28;;;;;;;34.57;19.30;;;8.50;99.90;;;;;;5007467;28;20231;-69
2022/03/28 12:11:14;;;;;;;40.33;19.53;;;8.50;99.90;;;;;;5009125;28;20307;-69
2022/03/28 12:13:59;;;;;;;34.47;18.53;;;8.60;99.90;;;;;;5012178;28;20196;-69
2022/03/28 12:16:50;;;;;;;36.50;19.43;;;8.60;99.90;;;;;;5004858;28;20195;-69
2022/03/28 12:19:35;;;;;;;45.07;21.50;;;8.70;99.90;;;;;;5006735;28;20247;-69
2022/03/28 12:22:21;;;;;;;35.93;18.53;;;8.70;99.90;;;;;;5006127;28;20192;-69
2022/03/28 12:25:06;;;;;;;43.30;19.83;;;8.80;99.90;;;;;;5006513;28;20207;-69
2022/03/28 12:27:53;;;;;;;37.03;20.20;;;8.80;99.90;;;;;;5003756;28;20284;-69
2022/03/28 12:30:50;;;;;;;39.10;20.93;;;8.80;99.90;;;;;;5004496;28;20613;-70
2022/03/28 12:33:40;;;;;;;36.20;20.07;;;8.90;99.90;;;;;;5008862;28;20192;-69
2022/03/28 12:36:26;;;;;;;35.87;20.37;;;9.00;99.90;;;;;;5003647;28;20193;-69
2022/03/28 12:39:11;;;;;;;42.00;22.00;;;9.00;99.90;;;;;;5007514;28;20191;-69
2022/03/28 12:41:57;;;;;;;42.23;21.53;;;9.10;99.90;;;;;;5006374;28;20215;-70
2022/03/28 12:44:42;;;;;;;40.20;21.60;;;9.20;99.90;;;;;;5009138;28;20192;-70
2022/03/28 12:47:28;;;;;;;35.97;22.00;;;9.20;99.90;;;;;;5007283;28;20207;-69
2022/03/28 12:50:12;;;;;;;34.63;21.03;;;9.30;99.90;;;;;;5003799;28;20347;-69
2022/03/28 12:53:14;;;;;;;42.33;21.93;;;9.30;99.90;;;;;;5008144;28;20200;-70
2022/03/28 12:56:18;;;;;;;41.83;20.87;;;9.40;99.90;;;;;;5007828;28;20210;-69
2022/03/28 12:59:03;;;;;;;35.23;20.20;;;9.50;99.90;;;;;;5008260;28;20196;-70
2022/03/28 13:01:49;;;;;;;34.77;20.47;;;9.40;99.90;;;;;;5007314;28;20215;-69
2022/03/28 13:05:01;;;;;;;35.20;21.13;;;9.40;99.90;;;;;;5008811;28;20184;-70
2022/03/28 13:07:47;;;;;;;32.90;18.97;;;9.50;99.90;;;;;;5005543;28;20227;-69
2022/03/28 13:10:38;;;;;;;28.50;18.00;;;9.50;99.90;;;;;;5008839;28;20255;-70
2022/03/28 13:13:34;;;;;;;31.10;18.77;;;9.50;99.90;;;;;;5009032;28;20200;-69
2022/03/28 13:16:21;;;;;;;34.40;17.10;;;9.50;99.90;;;;;;5005646;28;20231;-70
2022/03/28 13:19:06;;;;;;;25.27;16.70;;;9.50;99.90;;;;;;5005958;28;20203;-70
2022/03/28 13:21:57;;;;;;;28.47;16.83;;;9.50;99.90;;;;;;5001216;28;20216;-70
2022/03/28 13:24:41;;;;;;;32.60;15.33;;;9.60;99.90;;;;;;4997995;28;20288;-70
2022/03/28 13:31:00;;;;;;;21.23;13.50;;;9.60;99.90;;;;;;4996545;28;20227;-70
2022/03/28 13:33:44;;;;;;;20.43;12.53;;;9.60;99.90;;;;;;4995486;28;20245;-70
2022/03/28 13:36:29;;;;;;;18.93;12.87;;;9.60;99.90;;;;;;4997419;28;20199;-70
2022/03/28 13:39:13;;;;;;;18.87;13.13;;;9.60;99.90;;;;;;4998729;28;20308;-70
2022/03/28 13:41:58;;;;;;;20.70;13.67;;;9.70;99.90;;;;;;4999371;28;20216;-71
2022/03/28 13:44:42;;;;;;;22.70;13.30;;;9.70;99.90;;;;;;4994957;28;20606;-70
2022/03/28 13:47:26;;;;;;;22.90;13.17;;;9.70;99.90;;;;;;5001550;28;20250;-70
2022/03/28 13:50:11;;;;;;;24.13;12.67;;;9.70;99.90;;;;;;5007787;28;20218;-69
2022/03/28 13:52:56;;;;;;;17.60;11.30;;;9.70;99.90;;;;;;5005572;28;20207;-70
2022/03/28 13:55:41;;;;;;;15.70;11.10;;;9.80;99.90;;;;;;5019123;28;20180;-70
2022/03/28 13:58:25;;;;;;;17.67;10.87;;;9.80;99.90;;;;;;5006171;28;20251;-70
2022/03/28 14:01:09;;;;;;;22.00;11.10;;;9.90;99.90;;;;;;5004200;28;20312;-70
2022/03/28 14:03:58;;;;;;;13.50;10.33;;;9.90;99.90;;;;;;5003969;28;20195;-70
2022/03/28 14:06:43;;;;;;;12.43;9.33;;;9.90;99.90;;;;;;5000234;28;20210;-70
2022/03/28 14:09:27;;;;;;;13.43;9.97;;;9.90;99.90;;;;;;5003627;28;20272;-70
2022/03/28 14:12:11;;;;;;;12.47;9.20;;;9.90;99.90;;;;;;5004146;28;20270;-70
2022/03/28 14:14:57;;;;;;;15.67;9.53;;;9.90;99.90;;;;;;5004342;28;20239;-70
2022/03/28 14:17:42;;;;;;;15.83;9.60;;;9.90;99.90;;;;;;5000525;28;20191;-70
2022/03/28 14:20:26;;;;;;;12.90;9.20;;;10.00;99.90;;;;;;5005096;28;20231;-70
2022/03/28 14:23:10;;;;;;;13.30;8.70;;;10.00;99.90;;;;;;5005071;28;21206;-70
2022/03/28 14:25:55;;;;;;;13.10;8.67;;;10.10;99.90;;;;;;5005903;28;20239;-70